Time;durP1;ratioP1;P1;durP2;ratioP2;P2;SDS_P1;SDS_P2;PMS_P1;PMS_P2;Temp;Humidity;BMP_temperature;BMP_pressure;BME280_temperature;BME280_humidity;BME280_pressure;Samples;Min_cycle;Max_cycle;Signal;HPM_P1;HPM_P2
2022/09/04 00:00:01;;;;;;;8.80;6.85;;;13.80;99.90;;;;;;2603630;54;20863;31
2022/09/04 00:03:05;;;;;;;9.75;6.32;;;13.80;99.90;;;;;;2603628;54;20109;31
2022/09/04 00:05:50;;;;;;;9.20;5.60;;;13.80;99.90;;;;;;2603437;54;20034;31
2022/09/04 00:08:51;;;;;;;12.18;8.60;;;13.70;99.90;;;;;;2603268;54;20030;31
2022/09/04 00:11:31;;;;;;;9.68;6.57;;;13.70;99.90;;;;;;2603179;54;20027;31
2022/09/04 00:14:08;;;;;;;11.50;7.35;;;13.70;99.90;;;;;;2603530;54;20107;31
2022/09/04 00:16:44;;;;;;;8.88;6.90;;;13.70;99.90;;;;;;2603420;54;20994;31
2022/09/04 00:19:24;;;;;;;8.25;6.10;;;13.70;99.90;;;;;;2603427;54;20783;31
2022/09/04 00:22:00;;;;;;;8.95;6.75;;;13.60;99.90;;;;;;2621927;46;20947;31
2022/09/04 00:24:38;;;;;;;9.55;6.85;;;13.70;99.90;;;;;;2603423;54;20029;31
2022/09/04 00:27:14;;;;;;;8.90;6.78;;;13.60;99.90;;;;;;2603402;54;20027;31
2022/09/04 00:29:54;;;;;;;9.77;6.93;;;13.60;99.90;;;;;;2603443;54;20894;31
2022/09/04 00:32:32;;;;;;;13.27;7.63;;;13.60;99.90;;;;;;2603408;54;20022;31
2022/09/04 00:35:14;;;;;;;9.80;7.10;;;13.60;99.90;;;;;;2602600;54;20101;31
2022/09/04 00:37:52;;;;;;;9.35;7.22;;;13.60;99.90;;;;;;2603614;54;20055;31
2022/09/04 00:40:26;;;;;;;8.95;6.00;;;13.50;99.90;;;;;;2603311;54;20027;31
2022/09/04 00:43:15;;;;;;;10.55;6.53;;;13.50;99.90;;;;;;2603454;54;20038;31
2022/09/04 00:45:48;;;;;;;13.00;7.05;;;13.50;99.90;;;;;;2612123;46;20077;31
2022/09/04 00:48:48;;;;;;;13.40;7.47;;;13.50;99.90;;;;;;2603248;54;20089;31
2022/09/04 00:51:45;;;;;;;13.32;7.43;;;13.40;99.90;;;;;;2622202;46;20030;31
2022/09/04 00:54:34;;;;;;;;;;;13.40;99.90;;;;;;2603671;54;20027;31
2022/09/04 00:57:42;;;;;;;8.03;6.17;;;13.40;99.90;;;;;;2621876;46;19964;31
2022/09/04 01:00:17;;;;;;;9.80;7.07;;;13.30;99.90;;;;;;2621725;46;20038;31
2022/09/04 01:03:29;;;;;;;7.32;5.93;;;13.30;99.90;;;;;;2603221;54;20864;31
2022/09/04 01:06:20;;;;;;;15.40;7.40;;;13.30;99.90;;;;;;2603072;54;20037;31
2022/09/04 01:09:20;;;;;;;12.90;7.90;;;13.20;99.90;;;;;;2603211;54;20026;31
2022/09/04 01:12:02;;;;;;;8.95;6.50;;;13.20;99.90;;;;;;2603267;54;20061;31
2022/09/04 01:14:40;;;;;;;9.85;6.10;;;13.20;99.90;;;;;;2621779;46;20069;31
2022/09/04 01:17:18;;;;;;;8.57;6.10;;;13.20;99.90;;;;;;2621621;46;20081;31
2022/09/04 01:19:57;;;;;;;8.02;6.40;;;13.20;99.90;;;;;;2621677;46;21099;31
2022/09/04 01:22:51;;;;;;;9.07;7.20;;;13.20;99.90;;;;;;2603212;54;20042;31
2022/09/04 01:25:55;;;;;;;8.40;6.13;;;13.10;99.90;;;;;;2621409;46;20104;31
2022/09/04 01:28:31;;;;;;;8.80;6.35;;;13.10;99.90;;;;;;2603191;54;20301;31
2022/09/04 01:31:13;;;;;;;8.60;6.20;;;13.10;99.90;;;;;;2603398;54;20117;31
2022/09/04 01:33:53;;;;;;;11.38;6.55;;;13.10;99.90;;;;;;2603197;54;20063;31
2022/09/04 01:36:32;;;;;;;10.45;7.93;;;13.10;99.90;;;;;;2603275;54;20081;31
2022/09/04 01:39:07;;;;;;;8.90;7.13;;;13.10;99.90;;;;;;2603234;54;20058;31
2022/09/04 01:41:47;;;;;;;9.40;7.50;;;13.10;99.90;;;;;;2603214;54;20112;31
2022/09/04 01:44:22;;;;;;;9.43;7.07;;;13.00;99.90;;;;;;2603299;54;20254;31
2022/09/04 01:47:02;;;;;;;11.07;7.25;;;13.00;99.90;;;;;;2603296;54;20026;31
2022/09/04 01:49:39;;;;;;;10.07;7.45;;;13.00;99.90;;;;;;2621534;46;20026;31
2022/09/04 01:52:35;;;;;;;9.43;6.80;;;13.00;99.90;;;;;;2603154;54;20755;31
2022/09/04 01:55:15;;;;;;;10.07;6.50;;;12.90;99.90;;;;;;2603408;54;20349;31
2022/09/04 01:58:03;;;;;;;12.00;8.17;;;12.90;99.90;;;;;;2603153;54;20744;31
2022/09/04 02:00:39;;;;;;;11.80;7.50;;;12.90;99.90;;;;;;2603242;54;21235;31
2022/09/04 02:03:16;;;;;;;10.47;7.53;;;12.90;99.90;;;;;;2603246;54;20026;31
2022/09/04 02:05:59;;;;;;;10.98;7.30;;;12.90;99.90;;;;;;2603184;54;20034;31
2022/09/04 02:09:00;;;;;;;10.65;7.53;;;12.90;99.90;;;;;;2603204;54;20124;31
2022/09/04 02:11:35;;;;;;;8.45;7.38;;;12.80;99.90;;;;;;2603269;54;20033;31
2022/09/04 02:14:26;;;;;;;11.07;7.60;;;12.80;99.90;;;;;;2603086;54;20843;31
2022/09/04 02:17:09;;;;;;;9.57;7.00;;;12.80;99.90;;;;;;2603291;54;20030;31
2022/09/04 02:20:02;;;;;;;12.45;8.05;;;12.80;99.90;;;;;;2621823;47;20105;31
2022/09/04 02:22:43;;;;;;;11.52;7.30;;;12.80;99.90;;;;;;2720095;39;22520;31
2022/09/04 02:25:23;;;;;;;10.00;7.20;;;12.80;99.90;;;;;;2602954;54;20019;31
2022/09/04 02:28:07;;;;;;;9.18;7.25;;;12.80;99.90;;;;;;2603061;54;20808;31
2022/09/04 02:30:47;;;;;;;9.93;7.93;;;12.80;99.90;;;;;;2603000;54;20101;31
2022/09/04 02:33:25;;;;;;;10.35;7.50;;;12.70;99.90;;;;;;2602856;54;20026;31
2022/09/04 02:36:04;;;;;;;11.38;7.60;;;12.70;99.90;;;;;;2603887;54;20889;31
2022/09/04 02:38:43;;;;;;;8.13;6.78;;;12.70;99.90;;;;;;2603687;54;20089;31
2022/09/04 02:41:22;;;;;;;9.80;7.27;;;12.70;99.90;;;;;;2622633;46;20876;31
2022/09/04 02:44:10;;;;;;;10.85;7.38;;;12.70;99.90;;;;;;2603757;54;20913;31
2022/09/04 02:46:54;;;;;;;11.48;7.22;;;12.70;99.90;;;;;;2604017;54;20034;31
2022/09/04 02:49:34;;;;;;;10.55;7.50;;;12.60;99.90;;;;;;2603811;54;20022;31
2022/09/04 02:52:15;;;;;;;9.32;8.15;;;12.60;99.90;;;;;;2603727;54;20905;31
2022/09/04 02:54:58;;;;;;;11.10;7.70;;;12.60;99.90;;;;;;2603857;54;20036;31
2022/09/04 02:57:40;;;;;;;11.30;7.95;;;12.50;99.90;;;;;;2622468;46;20083;31
2022/09/04 03:00:18;;;;;;;11.57;7.07;;;12.50;99.90;;;;;;2603843;54;20085;31
2022/09/04 03:03:01;;;;;;;9.10;7.45;;;12.50;99.90;;;;;;2622006;46;20268;31
2022/09/04 03:05:40;;;;;;;9.35;6.47;;;12.50;99.90;;;;;;2603632;54;20921;31
2022/09/04 03:08:17;;;;;;;13.17;8.23;;;12.50;99.90;;;;;;2603698;54;20804;31
2022/09/04 03:10:57;;;;;;;10.17;7.43;;;12.50;99.90;;;;;;2622322;46;21198;31
2022/09/04 03:13:33;;;;;;;9.48;7.20;;;12.40;99.90;;;;;;2602882;54;20023;31
2022/09/04 03:16:11;;;;;;;11.20;7.80;;;12.40;99.90;;;;;;2603660;54;20111;31
2022/09/04 03:19:02;;;;;;;7.70;6.63;;;12.40;99.90;;;;;;2603629;54;20035;31
2022/09/04 03:21:43;;;;;;;12.38;7.15;;;12.40;99.90;;;;;;2603765;54;20057;31
2022/09/04 03:24:20;;;;;;;13.25;8.23;;;12.40;99.90;;;;;;2603500;54;20880;31
2022/09/04 03:26:53;;;;;;;13.18;7.60;;;12.30;99.90;;;;;;2702244;39;22542;31
2022/09/04 03:29:31;;;;;;;8.33;6.23;;;12.30;99.90;;;;;;2603576;54;20042;31
2022/09/04 03:32:10;;;;;;;12.33;8.03;;;12.30;99.90;;;;;;2603603;54;20101;31
2022/09/04 03:34:57;;;;;;;10.35;7.22;;;12.30;99.90;;;;;;2603837;54;20026;31
2022/09/04 03:37:47;;;;;;;10.23;6.90;;;12.30;99.90;;;;;;2603592;54;20830;31
2022/09/04 03:40:28;;;;;;;8.48;6.03;;;12.30;99.90;;;;;;2603466;54;20997;31
2022/09/04 03:43:10;;;;;;;9.57;6.95;;;12.30;99.90;;;;;;2603501;54;20085;31
2022/09/04 03:45:49;;;;;;;11.55;8.60;;;12.30;99.90;;;;;;2603276;54;20033;31
2022/09/04 03:48:44;;;;;;;9.82;7.13;;;12.20;99.90;;;;;;2603571;54;20050;31
2022/09/04 03:51:24;;;;;;;7.80;7.00;;;12.20;99.90;;;;;;2621904;46;20873;31
2022/09/04 03:54:04;;;;;;;7.85;6.57;;;12.20;99.90;;;;;;2603801;54;20844;31
2022/09/04 03:56:55;;;;;;;14.32;7.85;;;12.10;99.90;;;;;;2603518;54;20874;31
2022/09/04 03:59:44;;;;;;;9.25;7.13;;;12.20;99.90;;;;;;2603531;54;20026;31
2022/09/04 04:02:22;;;;;;;10.85;7.85;;;12.10;99.90;;;;;;2603566;54;20026;31
2022/09/04 04:05:18;;;;;;;9.50;7.70;;;12.10;99.90;;;;;;2621914;46;20104;31
2022/09/04 04:07:52;;;;;;;10.52;7.72;;;12.10;99.90;;;;;;2622038;46;21152;31
2022/09/04 04:10:34;;;;;;;10.10;8.35;;;12.10;99.90;;;;;;2622105;46;20884;31
2022/09/04 04:13:27;;;;;;;10.27;7.43;;;12.10;99.90;;;;;;2603465;54;20031;31
2022/09/04 04:16:10;;;;;;;9.07;7.13;;;12.00;99.90;;;;;;2603322;54;20991;31
2022/09/04 04:19:00;;;;;;;8.75;6.35;;;12.00;99.90;;;;;;2603485;54;20050;31
2022/09/04 04:21:54;;;;;;;9.07;7.40;;;12.10;99.90;;;;;;2603429;54;20038;31
2022/09/04 04:24:48;;;;;;;9.88;7.45;;;12.00;99.90;;;;;;2622108;46;20936;31
2022/09/04 04:27:42;;;;;;;9.43;5.75;;;12.00;99.90;;;;;;2603411;54;20033;31
2022/09/04 04:30:18;;;;;;;10.63;6.30;;;12.00;99.90;;;;;;2603328;54;20097;31
2022/09/04 04:33:24;;;;;;;7.10;6.38;;;12.00;99.90;;;;;;2603390;54;20082;31
2022/09/04 04:36:04;;;;;;;11.18;8.57;;;12.00;99.90;;;;;;2603481;54;20057;31
2022/09/04 04:38:46;;;;;;;9.18;6.82;;;11.90;99.90;;;;;;2603541;54;19942;31
2022/09/04 04:42:02;;;;;;;10.47;7.43;;;11.90;99.90;;;;;;2622262;46;20897;31
2022/09/04 04:45:48;;;;;;;8.05;6.85;;;12.00;99.90;;;;;;2603344;54;20185;31
2022/09/04 04:47:33;;;;;;;10.53;6.63;;;12.10;99.90;;;;;;2603371;54;20050;31
2022/09/04 04:50:14;;;;;;;12.03;8.17;;;12.10;99.90;;;;;;2603247;54;20030;31
2022/09/04 04:53:01;;;;;;;10.50;8.00;;;12.20;99.90;;;;;;2603529;54;20026;31
2022/09/04 04:55:41;;;;;;;9.35;7.07;;;12.30;99.90;;;;;;2603311;54;20963;31
2022/09/04 04:58:26;;;;;;;9.90;7.10;;;12.40;99.90;;;;;;2603409;54;20027;31
2022/09/04 05:01:08;;;;;;;9.15;6.90;;;12.50;99.90;;;;;;2621584;46;20143;31
2022/09/04 05:03:50;;;;;;;9.30;7.15;;;12.60;99.90;;;;;;2603211;54;20081;31
2022/09/04 05:06:28;;;;;;;10.15;7.07;;;12.70;99.90;;;;;;2603342;54;20038;31
2022/09/04 05:09:07;;;;;;;10.50;7.90;;;12.80;99.90;;;;;;2603306;54;20771;31
2022/09/04 05:11:45;;;;;;;10.93;6.97;;;12.90;99.90;;;;;;2603371;54;20116;31
2022/09/04 05:14:26;;;;;;;10.48;6.85;;;13.00;99.90;;;;;;2603119;54;20113;31
2022/09/04 05:17:08;;;;;;;10.90;7.13;;;13.20;99.90;;;;;;2603171;54;20771;31
2022/09/04 05:19:45;;;;;;;8.60;6.35;;;13.30;99.90;;;;;;2621739;46;20030;31
2022/09/04 05:22:25;;;;;;;11.30;7.23;;;13.40;99.90;;;;;;2603345;54;20026;31
2022/09/04 05:25:09;;;;;;;13.07;8.10;;;13.40;99.90;;;;;;2603279;54;20030;31
2022/09/04 05:27:57;;;;;;;10.35;7.20;;;13.40;99.90;;;;;;2621510;46;20105;31
2022/09/04 05:30:36;;;;;;;10.88;8.02;;;13.40;99.90;;;;;;2603303;54;20984;31
2022/09/04 05:33:17;;;;;;;11.20;8.02;;;13.50;99.90;;;;;;2621807;46;20023;31
2022/09/04 05:35:52;;;;;;;8.88;7.15;;;13.40;99.90;;;;;;2603111;54;20022;31
2022/09/04 05:38:31;;;;;;;8.32;6.63;;;13.50;99.90;;;;;;2603461;54;20034;31
2022/09/04 05:41:09;;;;;;;9.63;6.95;;;13.60;99.90;;;;;;2603102;54;20027;31
2022/09/04 05:44:02;;;;;;;11.35;7.45;;;13.60;99.90;;;;;;2621624;46;20029;31
2022/09/04 05:46:44;;;;;;;9.10;7.25;;;13.80;99.90;;;;;;2603178;54;20041;31
2022/09/04 05:49:34;;;;;;;10.20;6.13;;;14.00;99.90;;;;;;2603402;54;20926;31
2022/09/04 05:52:16;;;;;;;8.30;6.10;;;14.40;99.90;;;;;;2621288;46;20969;31
2022/09/04 05:55:18;;;;;;;9.63;6.13;;;14.80;99.90;;;;;;2603117;54;20103;31
2022/09/04 05:58:06;;;;;;;8.80;5.80;;;15.10;99.90;;;;;;2602960;54;20863;31
2022/09/04 06:00:45;;;;;;;8.60;6.37;;;15.50;99.90;;;;;;2603208;54;20807;31
2022/09/04 06:03:40;;;;;;;20.13;8.77;;;15.90;99.90;;;;;;2603067;54;20258;31
2022/09/04 06:06:23;;;;;;;7.45;5.47;;;16.20;99.90;;;;;;2603151;54;20861;31
2022/09/04 06:09:29;;;;;;;9.13;5.45;;;16.50;99.90;;;;;;2602758;54;20926;31
2022/09/04 06:12:11;;;;;;;7.72;5.28;;;16.80;99.90;;;;;;2602849;54;20939;31
2022/09/04 06:15:04;;;;;;;6.07;5.28;;;17.10;99.90;;;;;;2603134;54;20026;31
2022/09/04 06:17:47;;;;;;;7.03;5.45;;;17.30;99.90;;;;;;2602782;54;20736;31
2022/09/04 06:20:35;;;;;;;13.20;9.00;;;17.40;99.90;;;;;;2602965;54;20891;31
2022/09/04 06:23:40;;;;;;;9.30;7.07;;;17.60;99.90;;;;;;2621250;47;20924;31
2022/09/04 06:26:23;;;;;;;9.60;5.30;;;17.70;99.90;;;;;;2603118;54;20030;31
2022/09/04 06:29:30;;;;;;;15.17;7.90;;;17.90;99.90;;;;;;2602966;54;20249;31
2022/09/04 06:34:47;;;;;;;8.65;5.55;;;18.20;99.90;;;;;;2603105;54;20037;31
2022/09/04 06:37:25;;;;;;;7.70;4.82;;;18.30;99.90;;;;;;2602988;54;20018;31
2022/09/04 06:40:10;;;;;;;6.47;4.90;;;18.10;99.90;;;;;;2602978;54;20037;31
2022/09/04 06:42:52;;;;;;;6.53;4.82;;;18.10;99.90;;;;;;2602885;54;20085;31
2022/09/04 06:45:31;;;;;;;7.22;4.60;;;17.80;99.90;;;;;;2602901;54;20056;31
2022/09/04 06:48:05;;;;;;;6.40;5.00;;;17.80;99.90;;;;;;2603041;54;20881;31
2022/09/04 06:50:46;;;;;;;5.78;4.28;;;17.50;99.90;;;;;;2603026;54;20123;31
2022/09/04 06:53:26;;;;;;;8.27;5.00;;;17.40;99.90;;;;;;2602754;54;20112;31
2022/09/04 06:56:17;;;;;;;8.27;5.28;;;17.30;99.90;;;;;;2602663;54;20832;31
2022/09/04 06:59:24;;;;;;;6.10;4.75;;;17.10;99.90;;;;;;2602874;54;20181;31
2022/09/04 07:02:03;;;;;;;6.10;4.80;;;17.10;99.90;;;;;;2621441;47;20034;31
2022/09/04 07:04:46;;;;;;;5.10;4.50;;;16.90;99.90;;;;;;2602836;54;20034;31
2022/09/04 07:07:23;;;;;;;6.53;4.65;;;16.80;99.90;;;;;;2602976;54;20871;31
2022/09/04 07:09:59;;;;;;;7.15;5.25;;;16.80;99.90;;;;;;2603065;54;20023;31
2022/09/04 07:13:10;;;;;;;7.63;5.28;;;16.80;99.90;;;;;;2602642;54;20026;31
2022/09/04 07:16:10;;;;;;;7.13;5.25;;;16.80;99.90;;;;;;2603109;54;20073;31
2022/09/04 07:19:03;;;;;;;6.50;4.63;;;16.70;99.90;;;;;;2602944;54;20026;31
2022/09/04 07:21:40;;;;;;;7.03;4.85;;;16.80;99.90;;;;;;2603306;54;20924;31
2022/09/04 07:24:39;;;;;;;6.05;4.47;;;16.70;99.90;;;;;;2603810;54;20033;31
2022/09/04 07:27:16;;;;;;;6.32;5.30;;;16.90;99.90;;;;;;2603720;54;20119;31
2022/09/04 07:29:56;;;;;;;6.97;4.65;;;17.20;99.90;;;;;;2603686;54;20046;31
2022/09/04 07:32:32;;;;;;;5.80;4.70;;;17.50;99.90;;;;;;2621671;46;20030;31
2022/09/04 07:35:09;;;;;;;6.85;4.75;;;18.00;99.90;;;;;;2622276;46;20023;31
2022/09/04 07:37:48;;;;;;;7.33;5.40;;;18.40;99.90;;;;;;2603626;54;20112;31
2022/09/04 07:40:25;;;;;;;5.20;4.25;;;18.90;99.90;;;;;;2603536;54;20022;31
2022/09/04 07:43:09;;;;;;;6.47;5.07;;;19.30;99.90;;;;;;2603588;54;20030;31
2022/09/04 07:45:49;;;;;;;6.43;4.97;;;19.60;99.90;;;;;;2603496;54;20108;31
2022/09/04 07:48:28;;;;;;;6.50;5.07;;;19.80;99.90;;;;;;2603671;54;20117;31
2022/09/04 07:51:09;;;;;;;6.60;4.95;;;19.90;99.90;;;;;;2621740;46;20927;31
2022/09/04 07:54:10;;;;;;;5.75;4.30;;;20.10;99.90;;;;;;2603428;54;20152;31
2022/09/04 07:56:56;;;;;;;6.25;4.50;;;20.40;99.90;;;;;;2603876;54;20875;31
2022/09/04 07:59:47;;;;;;;7.38;4.60;;;20.50;99.90;;;;;;2603682;54;20038;31
2022/09/04 08:02:46;;;;;;;5.43;4.47;;;20.70;99.90;;;;;;2603377;54;20031;31
2022/09/04 08:05:24;;;;;;;6.80;4.50;;;20.70;99.90;;;;;;2603269;54;20030;31
2022/09/04 08:08:25;;;;;;;7.80;4.75;;;20.90;99.90;;;;;;2622100;46;20081;31
2022/09/04 08:11:20;;;;;;;5.03;4.30;;;21.20;99.90;;;;;;2603812;54;20054;31
2022/09/04 08:14:20;;;;;;;6.22;4.78;;;21.50;99.90;;;;;;2608538;46;20089;31
2022/09/04 08:17:04;;;;;;;6.00;4.35;;;21.90;99.90;;;;;;2603083;54;20057;31
2022/09/04 08:19:44;;;;;;;4.97;4.45;;;22.00;99.90;;;;;;2622043;46;20892;31
2022/09/04 08:22:22;;;;;;;6.25;4.53;;;22.10;99.90;;;;;;2603669;54;20868;31
2022/09/04 08:25:09;;;;;;;5.05;4.40;;;22.10;99.90;;;;;;2603844;54;20066;31
2022/09/04 08:27:53;;;;;;;7.38;4.90;;;22.40;99.90;;;;;;2603462;54;20060;31
2022/09/04 08:30:27;;;;;;;5.63;4.45;;;22.50;99.90;;;;;;2603751;54;20034;31
2022/09/04 08:33:14;;;;;;;5.45;4.18;;;22.70;99.90;;;;;;2621636;46;20995;31
2022/09/04 08:35:54;;;;;;;6.35;4.00;;;22.90;99.90;;;;;;2622022;46;20030;31
2022/09/04 08:38:55;;;;;;;5.07;3.93;;;23.20;99.90;;;;;;2603495;54;20109;31
2022/09/04 08:41:29;;;;;;;4.35;3.95;;;23.40;99.90;;;;;;2603371;54;20038;31
2022/09/04 08:44:25;;;;;;;4.97;3.67;;;23.60;99.90;;;;;;2603694;54;20050;31
2022/09/04 08:47:00;;;;;;;5.07;3.60;;;23.60;99.90;;;;;;2603494;54;20093;31
2022/09/04 08:49:54;;;;;;;5.28;3.97;;;23.70;99.90;;;;;;2622024;46;20309;31
2022/09/04 08:52:51;;;;;;;5.30;3.63;;;23.80;99.90;;;;;;2603629;54;20108;31
2022/09/04 08:55:36;;;;;;;;;;;24.00;99.90;;;;;;2603463;54;20034;31
2022/09/04 08:58:35;;;;;;;6.00;3.95;;;24.20;99.90;;;;;;2603242;54;20712;31
2022/09/04 09:01:34;;;;;;;4.95;3.63;;;24.10;99.90;;;;;;2603640;54;20897;31
2022/09/04 09:04:31;;;;;;;5.60;3.60;;;24.10;99.90;;;;;;2603505;54;20033;31
2022/09/04 09:07:28;;;;;;;5.50;3.90;;;24.10;99.90;;;;;;2603020;54;20022;31
2022/09/04 09:10:39;;;;;;;3.70;2.70;;;24.20;99.90;;;;;;2603276;54;20950;31
2022/09/04 09:13:43;;;;;;;3.50;3.20;;;24.20;99.90;;;;;;2603047;54;20851;31
2022/09/04 09:19:10;;;;;;;4.37;3.37;;;24.40;99.90;;;;;;2621087;46;20588;31
2022/09/04 09:21:48;;;;;;;5.15;3.28;;;24.40;99.90;;;;;;2603225;54;20026;31
2022/09/04 09:25:05;;;;;;;4.10;3.22;;;24.40;99.90;;;;;;2603367;54;20762;31
2022/09/04 09:30:12;;;;;;;4.40;3.30;;;24.80;99.90;;;;;;2603472;54;20030;31
2022/09/04 09:33:29;;;;;;;4.15;3.30;;;25.00;99.90;;;;;;2621867;46;20868;31
2022/09/04 09:36:28;;;;;;;5.10;3.37;;;25.00;99.90;;;;;;2603239;54;20937;31
2022/09/04 09:39:39;;;;;;;3.87;3.10;;;25.00;99.90;;;;;;2603070;54;20867;31
2022/09/04 09:42:25;;;;;;;3.30;3.00;;;24.90;99.90;;;;;;2603102;54;20836;31
2022/09/04 09:45:24;;;;;;;4.45;3.05;;;25.10;99.90;;;;;;2602970;54;20772;31
2022/09/04 09:48:29;;;;;;;4.03;3.25;;;25.00;99.90;;;;;;2603323;54;20026;31
2022/09/04 09:51:32;;;;;;;4.13;3.10;;;25.00;99.90;;;;;;2603089;54;20035;31
2022/09/04 09:54:27;;;;;;;5.05;3.28;;;24.90;99.90;;;;;;2621866;46;20917;31
2022/09/04 09:57:28;;;;;;;4.00;3.10;;;25.20;99.90;;;;;;2621501;46;20030;31
2022/09/04 10:00:14;;;;;;;2.88;2.58;;;25.30;99.90;;;;;;2603090;54;20026;31
2022/09/04 10:03:16;;;;;;;3.58;3.05;;;25.20;99.90;;;;;;2603103;54;20026;31
2022/09/04 10:06:28;;;;;;;4.53;3.05;;;25.20;99.90;;;;;;2603427;54;20045;31
2022/09/04 10:09:31;;;;;;;2.80;2.58;;;25.30;99.90;;;;;;2603207;54;20046;31
2022/09/04 10:14:56;;;;;;;3.00;2.45;;;25.10;99.90;;;;;;2602983;54;20980;31
2022/09/04 10:17:51;;;;;;;3.57;2.80;;;25.10;99.90;;;;;;2603228;54;20089;31
2022/09/04 10:20:52;;;;;;;2.85;2.30;;;25.10;99.90;;;;;;2621264;47;20109;31
2022/09/04 10:23:40;;;;;;;3.95;3.00;;;25.10;99.90;;;;;;2603177;54;20085;31
2022/09/04 10:26:27;;;;;;;3.40;3.00;;;25.00;99.90;;;;;;2602799;54;25057;31
2022/09/04 10:29:25;;;;;;;3.30;2.67;;;25.00;99.90;;;;;;2602989;54;20046;31
2022/09/04 10:32:30;;;;;;;3.42;2.78;;;25.00;99.90;;;;;;2603135;54;20925;31
2022/09/04 10:35:17;;;;;;;3.97;2.90;;;24.90;99.90;;;;;;2603017;54;20022;31
2022/09/04 10:38:33;;;;;;;2.70;2.33;;;25.00;99.90;;;;;;2603158;54;20934;31
2022/09/04 10:41:30;;;;;;;3.95;2.50;;;25.10;99.90;;;;;;2602828;54;19938;31
2022/09/04 10:44:03;;;;;;;5.57;2.20;;;25.00;99.90;;;;;;2602939;54;20027;31
2022/09/04 10:46:41;;;;;;;2.92;2.47;;;25.00;99.90;;;;;;2603110;54;20793;31
2022/09/04 10:49:28;;;;;;;3.63;2.50;;;25.00;99.90;;;;;;2603181;54;20869;31
2022/09/04 10:52:16;;;;;;;2.17;1.88;;;25.00;99.90;;;;;;2603001;54;20046;31
2022/09/04 10:55:01;;;;;;;2.57;2.37;;;25.10;99.90;;;;;;2603152;54;20077;31
2022/09/04 10:57:47;;;;;;;2.50;2.10;;;24.90;99.90;;;;;;2621962;46;20027;31
2022/09/04 11:00:22;;;;;;;2.90;2.60;;;24.80;99.90;;;;;;2603693;54;20928;31
2022/09/04 11:03:27;;;;;;;4.50;2.53;;;24.70;99.90;;;;;;2603697;54;20050;31
2022/09/04 11:06:25;;;;;;;3.40;2.30;;;24.60;99.90;;;;;;2603680;54;20109;31
2022/09/04 11:09:07;;;;;;;2.67;1.97;;;24.60;99.90;;;;;;2622497;46;20038;31
2022/09/04 11:12:01;;;;;;;2.72;2.28;;;24.60;99.90;;;;;;2603697;54;20031;31
2022/09/04 11:14:57;;;;;;;2.57;2.37;;;24.60;99.90;;;;;;2603543;54;19935;31
2022/09/04 11:18:01;;;;;;;2.55;2.10;;;24.60;99.90;;;;;;2603590;54;20783;31
2022/09/04 11:21:09;;;;;;;2.88;2.20;;;24.60;99.90;;;;;;2603617;54;20945;31
2022/09/04 11:24:15;;;;;;;2.10;1.90;;;24.60;99.90;;;;;;2603626;54;20082;31
2022/09/04 11:27:19;;;;;;;2.73;2.10;;;24.60;99.90;;;;;;2603835;54;20040;31
2022/09/04 11:30:14;;;;;;;2.55;1.90;;;24.60;99.90;;;;;;2603564;54;20029;31
2022/09/04 11:33:22;;;;;;;2.22;2.03;;;24.40;99.90;;;;;;2622280;46;20859;31
2022/09/04 11:36:19;;;;;;;3.22;2.47;;;24.30;99.90;;;;;;2603534;54;20035;31
2022/09/04 11:39:19;;;;;;;3.95;2.55;;;24.20;99.90;;;;;;2603765;54;20089;31
2022/09/04 11:44:41;;;;;;;4.30;2.00;;;24.10;99.90;;;;;;2603707;54;20909;31
2022/09/04 11:47:42;;;;;;;3.90;2.20;;;24.10;99.90;;;;;;2622312;46;20110;31
2022/09/04 11:50:21;;;;;;;2.47;2.13;;;24.20;99.90;;;;;;2603840;54;20077;31
2022/09/04 11:53:11;;;;;;;2.60;2.33;;;24.20;99.90;;;;;;2622165;46;20027;31
2022/09/04 11:56:07;;;;;;;2.70;2.22;;;24.30;99.90;;;;;;2603532;54;20046;31
2022/09/04 11:58:51;;;;;;;2.40;2.05;;;24.20;99.90;;;;;;2603528;54;20863;31
2022/09/04 12:01:23;;;;;;;2.60;2.40;;;24.10;99.90;;;;;;2603417;54;20054;31
2022/09/04 12:04:31;;;;;;;3.97;2.22;;;24.10;99.90;;;;;;2603263;54;20022;31
2022/09/04 12:07:13;;;;;;;3.65;1.83;;;24.10;99.90;;;;;;2603147;54;20050;31
2022/09/04 12:10:11;;;;;;;2.93;2.17;;;24.10;99.90;;;;;;2603764;54;20038;31
2022/09/04 12:13:03;;;;;;;2.85;1.80;;;24.10;99.90;;;;;;2621989;46;20957;31
2022/09/04 12:16:03;;;;;;;2.63;2.22;;;24.10;99.90;;;;;;2603762;54;20866;31
2022/09/04 12:19:11;;;;;;;2.67;2.05;;;23.90;99.90;;;;;;2603642;54;20047;31
2022/09/04 12:22:13;;;;;;;3.08;1.65;;;23.80;99.90;;;;;;2603211;54;20029;31
2022/09/04 12:25:06;;;;;;;1.83;1.38;;;23.80;99.90;;;;;;2603390;54;20034;31
2022/09/04 12:28:17;;;;;;;2.17;1.98;;;23.80;99.90;;;;;;2622169;46;20034;31
2022/09/04 12:30:51;;;;;;;2.35;1.95;;;23.80;99.90;;;;;;2603560;54;20041;31
2022/09/04 12:33:47;;;;;;;2.47;1.63;;;23.70;99.90;;;;;;2603625;54;19930;31
2022/09/04 12:37:00;;;;;;;3.60;1.70;;;23.80;99.90;;;;;;2603296;54;20030;31
2022/09/04 12:39:57;;;;;;;3.00;1.50;;;23.80;99.90;;;;;;2622154;46;20112;31
2022/09/04 12:42:33;;;;;;;3.10;1.85;;;23.90;99.90;;;;;;2603688;54;20906;31
2022/09/04 12:45:12;;;;;;;2.72;1.83;;;23.90;99.90;;;;;;2603527;54;20826;31
2022/09/04 12:47:50;;;;;;;4.28;1.80;;;23.90;99.90;;;;;;2621654;46;20900;31
2022/09/04 12:50:36;;;;;;;3.20;1.80;;;23.80;99.90;;;;;;2603543;54;19958;31
2022/09/04 12:53:27;;;;;;;2.20;1.63;;;23.70;99.90;;;;;;2603463;54;20087;31
2022/09/04 12:56:09;;;;;;;3.10;2.13;;;23.70;99.90;;;;;;2621571;46;20037;31
2022/09/04 12:58:51;;;;;;;2.45;1.75;;;23.70;99.90;;;;;;2603324;54;20117;31
2022/09/04 13:01:29;;;;;;;3.33;1.83;;;23.70;99.90;;;;;;2603288;54;20108;31
2022/09/04 13:04:07;;;;;;;1.75;1.40;;;23.60;99.90;;;;;;2720861;39;20991;31
2022/09/04 13:06:45;;;;;;;2.45;1.52;;;23.60;99.90;;;;;;2603228;54;20030;31
2022/09/04 13:09:27;;;;;;;3.80;1.58;;;23.60;99.90;;;;;;2622250;46;20952;31
2022/09/04 13:12:01;;;;;;;2.63;1.55;;;23.60;99.90;;;;;;2621624;46;20887;31
2022/09/04 13:14:58;;;;;;;2.45;1.50;;;23.60;99.90;;;;;;2603473;54;20026;31
2022/09/04 13:17:35;;;;;;;2.83;1.30;;;23.60;99.90;;;;;;2603387;54;20948;31
2022/09/04 13:20:13;;;;;;;2.15;1.20;;;23.50;99.90;;;;;;2603391;54;19942;31
2022/09/04 13:23:00;;;;;;;3.08;1.05;;;23.60;99.90;;;;;;2603409;54;20037;31
2022/09/04 13:25:41;;;;;;;1.83;1.30;;;23.60;99.90;;;;;;2603265;54;20054;31
2022/09/04 13:28:22;;;;;;;2.95;1.45;;;23.60;99.90;;;;;;2621698;46;20034;31
2022/09/04 13:31:22;;;;;;;1.70;1.10;;;23.60;99.90;;;;;;2603361;54;19934;31
2022/09/04 13:33:57;;;;;;;3.25;1.33;;;23.60;99.90;;;;;;2603285;54;20027;31
2022/09/04 13:36:35;;;;;;;;;;;23.60;99.90;;;;;;2603342;54;20741;31
2022/09/04 13:39:34;;;;;;;1.70;1.02;;;23.60;99.90;;;;;;2603005;54;20013;31
2022/09/04 13:42:38;;;;;;;1.50;1.10;;;23.60;99.90;;;;;;2621809;46;20085;31
2022/09/04 13:45:15;;;;;;;1.23;1.08;;;23.60;99.90;;;;;;2603439;54;20030;31
2022/09/04 13:47:54;;;;;;;2.50;1.10;;;23.60;99.90;;;;;;2603275;54;20090;31
2022/09/04 13:50:31;;;;;;;2.15;1.15;;;23.50;99.90;;;;;;2603131;54;20810;31
2022/09/04 13:53:09;;;;;;;1.83;1.25;;;23.60;99.90;;;;;;2603214;54;20033;31
2022/09/04 13:55:46;;;;;;;1.42;1.10;;;23.60;99.90;;;;;;2603231;54;20042;31
2022/09/04 13:58:25;;;;;;;2.20;1.00;;;23.60;99.90;;;;;;2603415;54;20045;31
2022/09/04 14:01:05;;;;;;;1.35;1.00;;;23.60;99.90;;;;;;2603138;54;20038;31
2022/09/04 14:03:43;;;;;;;1.63;1.10;;;23.60;99.90;;;;;;2621763;46;20048;31
2022/09/04 14:06:19;;;;;;;1.45;1.10;;;23.50;99.90;;;;;;2603277;54;20030;31
2022/09/04 14:08:54;;;;;;;2.80;1.15;;;23.50;99.90;;;;;;2603245;54;20833;31
2022/09/04 14:12:08;;;;;;;3.28;1.40;;;23.50;99.90;;;;;;2603198;54;20896;31
2022/09/04 14:15:10;;;;;;;2.65;1.00;;;23.50;99.90;;;;;;2603214;54;20922;31
2022/09/04 14:17:43;;;;;;;1.97;1.10;;;23.60;99.90;;;;;;2602954;54;20042;31
2022/09/04 14:20:22;;;;;;;1.30;1.15;;;23.60;99.90;;;;;;2603062;54;20121;31
2022/09/04 14:23:02;;;;;;;1.98;1.00;;;23.60;99.90;;;;;;2603363;54;20059;31
2022/09/04 14:28:12;;;;;;;2.08;0.95;;;23.60;99.90;;;;;;2603409;54;20036;31
2022/09/04 14:30:53;;;;;;;2.17;1.23;;;23.50;99.90;;;;;;2603247;54;20036;31
2022/09/04 14:33:35;;;;;;;3.33;1.10;;;23.50;99.90;;;;;;2622756;46;20030;31
2022/09/04 14:36:20;;;;;;;2.55;1.17;;;23.50;99.90;;;;;;2603772;54;19986;31
2022/09/04 14:39:14;;;;;;;1.48;1.10;;;23.50;99.90;;;;;;2603792;54;20038;31
2022/09/04 14:41:57;;;;;;;1.55;0.80;;;23.50;99.90;;;;;;2603879;54;20023;31
2022/09/04 14:44:41;;;;;;;2.53;1.00;;;23.40;99.90;;;;;;2603926;54;20057;31
2022/09/04 14:47:24;;;;;;;1.80;1.05;;;23.40;99.90;;;;;;2622593;46;20794;31
2022/09/04 14:50:00;;;;;;;1.80;1.00;;;23.40;99.90;;;;;;2603992;54;20023;31
2022/09/04 14:52:43;;;;;;;1.45;1.10;;;23.40;99.90;;;;;;2604003;54;20572;31